Zprávy METAR z letišť v České republice


LKPR - Praha Ruzyně, Česká republika
Aktualizováno: 16.04.2021 01:00
 
Teplota vzduchu: 1°C
Chlad větru: -2°C
Vítr: WNW 9 km/h
Rosný bod: 0°C
Vlhkost vzduchu: 93%
Tlak vzduchu: 1022 hPa
Oblačnost: Overcast
Viditelnost: 10 km
Detaily oblačnosti: Mostly Cloudy 457 m
Overcast 1006 m
2021/04/15 23:00 LKPR 152300Z 29005KT 9999 BKN015 OVC033 01/M00 Q1022 NOSIG
LKTB - Brno Tuřany, Česká republika
Aktualizováno: 16.04.2021 01:00
 
Teplota vzduchu: 2°C
Vítr: NNW 6 km/h
Rosný bod: -1°C
Vlhkost vzduchu: 81%
Tlak vzduchu: 1021 hPa
Oblačnost: Partly Cloudy
Viditelnost: 10 km
Detaily oblačnosti: Partly Cloudy 1189 m
2021/04/15 23:00 LKTB 152300Z 33003KT 9999 SCT039 02/M01 Q1021 NOSIG
 
LKKV - Karlovy Vary, Česká republika
Aktualizováno: 16.04.2021 01:00
 
Teplota vzduchu: 0°C
Chlad větru: -3°C
Vítr: W 7 km/h
Rosný bod: -4°C
Vlhkost vzduchu: 75%
Tlak vzduchu: 1022 hPa
Stav počasí: Light Snow
Oblačnost: Overcast
Viditelnost: 10 km
Detaily oblačnosti: Overcast 579 m
2021/04/15 23:00 LKKV 152300Z 27004KT 230V300 9999 -SN OVC019 M00/M04 Q1022
LKMT - Ostrava Mošnov, Česká republika
Aktualizováno: 16.04.2021 01:00
 
Teplota vzduchu: 2°C
Chlad větru: 0°C
Vítr: NW 7 km/h
Rosný bod: 0°C
Vlhkost vzduchu: 87%
Tlak vzduchu: 1020 hPa
Oblačnost: Overcast
Viditelnost: 10 km
Detaily oblačnosti: Overcast 335 m
2021/04/15 23:00 LKMT 152300Z 32004KT 9999 OVC011 02/00 Q1020 NOSIG
 
LKPD - Pardubice, Česká republika
Aktualizováno: 16.04.2021 01:00
 
Teplota vzduchu: 1°C
Chlad větru: -3°C
Vítr: WNW 15 km/h
Rosný bod: 0°C
Vlhkost vzduchu: 93%
Tlak vzduchu: 1022 hPa
Oblačnost: Overcast
Viditelnost: 10 km
Detaily oblačnosti: Partly Cloudy 213 m
Overcast 1219 m
2021/04/15 23:00 LKPD 152300Z 29008KT 9999 SCT007 OVC040 01/00 Q1022 RMK BLU
LKKB - Praha Kbely, Česká republika
Aktualizováno: 16.04.2021 01:00
 
Teplota vzduchu: 1°C
Chlad větru: -3°C
Vítr: WNW 13 km/h
Rosný bod: 0°C
Vlhkost vzduchu: 93%
Tlak vzduchu: 1022 hPa
Oblačnost: Overcast
Viditelnost: 10 km
Detaily oblačnosti: Overcast 610 m
2021/04/15 23:00 LKKB 152300Z 29007KT 9999 OVC020 01/M00 Q1022
 
LKCV - Čáslav, Česká republika
Aktualizováno: 16.04.2021 01:00
 
Teplota vzduchu: 1°C
Chlad větru: -4°C
Vítr: WNW 20 km/h
Rosný bod: -1°C
Vlhkost vzduchu: 87%
Tlak vzduchu: 1022 hPa
Stav počasí: Light rain, Snow
Oblačnost: Overcast
Viditelnost: 10 km
Detaily oblačnosti: Mostly Cloudy 213 m
Overcast 427 m
2021/04/15 23:00 LKCV 152300Z 30011KT 9999 -RASN BKN007 OVC014 01/M01 Q1022 NOSIG RMK GRN GRN
LKNA - Náměšť n. Osl., Česká republika
Aktualizováno: 16.04.2021 01:00
 
Teplota vzduchu: 1°C
Chlad větru: -4°C
Vítr: NW 20 km/h
Rosný bod: -2°C
Vlhkost vzduchu: 81%
Tlak vzduchu: 1020 hPa
Stav počasí: Light Rain
Oblačnost: Mostly Cloudy
Viditelnost: 10 km
Detaily oblačnosti: Mostly Cloudy 427 m
2021/04/15 23:00 LKNA 152300Z 31011KT 9999 -RA BKN014 01/M02 Q1020 RMK GRN
 
LKLN - Plzeň Líně, Česká republika
Aktualizováno: 16.04.2021 01:00
 
Teplota vzduchu: 1°C
Vítr: W 6 km/h
Rosný bod: 0°C
Vlhkost vzduchu: 93%
Tlak vzduchu: 1024 hPa
Stav počasí: Light Rain
Oblačnost: Overcast
Viditelnost: 10 km
Detaily oblačnosti: Few Clouds 1219 m
Overcast 1494 m
2021/04/15 23:00 LKLN 152300Z AUTO 27003KT 9999 -RA FEW040 OVC049 01/M00 Q1024
LKVO - Vodochody, Česká republika
Aktualizováno: 15.04.2021 11:00
Není aktuální
 
Teplota vzduchu: 5°C
Chlad větru: 2°C
Vítr: NW 17 km/h
Rosný bod: -3°C
Vlhkost vzduchu: 57%
Tlak vzduchu: 1025 hPa
Oblačnost: Mostly Cloudy
Viditelnost: 10 km
Detaily oblačnosti: Partly Cloudy 975 m
Mostly Cloudy 2347 m
2021/04/15 09:00 LKVO 150900Z 32009KT 240V040 9999 SCT032 BKN077 05/M03 Q1025

Metar display script od Saratoga-Weather.org
upravil a přeložil Miloš Jiřík